Terminal Aerodrome Forecast
Issued by NWS

Home | Current Version | Previous Version | Text Only | Print | Product List | Glossary On
Versions: 1 2 3 4 5 6 7 8 9 10 11 12 13 14
000
FTUS44 KMAF 291100
TAFHOB
TAF
KHOB 291124Z 2912/3012 12007KT P6SM SCT100
      TEMPO 2912/2914 5SM BR SCT010=

USA.gov is the U.S. government's official web portal to all federal, state and local government web resources and services.